Main page
METAR-TAF:

METAR-TAF

Airports :

Nakhchivan, Azerbaijan

Nakhchivan International Airport

latitude: 39-11-19N, longitude: 045-27-30E, elevation: 873 m

Current weather observation

The report was made 23 minutes ago, at 04:30 UTC
Wind 2 kt from variable directions
Temperature 27°C
Humidity 39%
Pressure 1014 hPa
Visibility 10 km or more

METAR: UBBN 240430Z VRB02KT 9999 NSC 27/12 Q1014 R14R/CLRD// NOSIG RMK MT OP QFE686

Time: 08:53 (04:53 UTC)

Forecast

The report was made 5 hours and 53 minutes ago, at 23:00 UTC
Forecast valid from 24 at 00 UTC to 24 at 24 UTC
Wind 10 kt from the East
Visibility 10 km or more
Few clouds at a height of 5000 ft
Scattered clouds at a height of 10000 ft
Temporary
from 24 at 00 UTC to 24 at 12 UTC
Wind 14 kt from the Southeast

TAF: UBBN 232300Z 2400/2424 09010KT 9999 FEW050 SCT100 TX40/2412Z TN24/2402Z TEMPO 2400/2412 14014KT

Weather observations and forecasts of more than 4000 airports (METAR and TAF reports).

The available stations are represented by yellow and red dots on the map.

Hover mouse over dot to see the name of the station.

Then click to see weather observations and forecasts.

To change the map : click on the green buttons with a black cross to zoom in, on the green button with a dash to zoom out, or on the green arrows for adjacent maps.


METAR-TAF: